createdAt,value
2022-09-18T00:01:40.763Z,2.00
2022-09-18T00:04:13.774Z,1.77
2022-09-18T00:06:44.204Z,1.90
2022-09-18T00:09:15.613Z,1.47
2022-09-18T00:11:49.301Z,1.60
2022-09-18T00:14:24.004Z,2.13
2022-09-18T00:16:52.547Z,1.47
2022-09-18T00:19:21.639Z,1.60
2022-09-18T00:21:52.100Z,1.70
2022-09-18T00:24:22.159Z,1.57
2022-09-18T00:26:51.213Z,1.80
2022-09-18T00:29:20.544Z,1.60
2022-09-18T00:31:48.727Z,1.93
2022-09-18T00:34:17.601Z,1.70
2022-09-18T00:36:46.304Z,1.80
2022-09-18T00:39:14.634Z,1.73
2022-09-18T00:41:44.857Z,1.70
2022-09-18T00:44:41.004Z,1.80
2022-09-18T00:47:28.463Z,1.80
2022-09-18T00:50:05.720Z,1.90
2022-09-18T00:52:48.263Z,1.63
2022-09-18T00:55:19.471Z,1.87
2022-09-18T00:57:53.914Z,1.70
2022-09-18T01:00:24.982Z,1.63
2022-09-18T01:02:53.786Z,1.70
2022-09-18T01:05:33.096Z,2.30
2022-09-18T01:08:26.415Z,1.60
2022-09-18T01:11:19.016Z,1.60
2022-09-18T01:14:00.988Z,1.70
2022-09-18T01:16:41.846Z,1.47
2022-09-18T01:19:32.100Z,1.93
2022-09-18T01:22:23.796Z,1.80
2022-09-18T01:25:14.724Z,1.73
2022-09-18T01:28:14.869Z,1.70
2022-09-18T01:30:46.933Z,1.60
2022-09-18T01:33:26.815Z,2.10
2022-09-18T01:36:04.058Z,1.43
2022-09-18T01:38:41.015Z,1.57
2022-09-18T01:41:15.045Z,1.60
2022-09-18T01:43:49.431Z,1.60
2022-09-18T01:46:20.838Z,1.60
2022-09-18T01:48:56.296Z,1.27
2022-09-18T01:51:30.361Z,1.10
2022-09-18T01:54:05.914Z,1.27
2022-09-18T01:56:39.984Z,1.67
2022-09-18T01:59:15.334Z,1.40
2022-09-18T02:01:47.638Z,1.60
2022-09-18T02:04:23.492Z,1.27
2022-09-18T02:07:00.854Z,1.30
2022-09-18T02:09:30.266Z,1.60
2022-09-18T02:12:07.030Z,1.50
2022-09-18T02:14:43.276Z,1.50
2022-09-18T02:17:18.412Z,1.40
2022-09-18T02:19:52.969Z,1.40
2022-09-18T02:22:25.156Z,1.40
2022-09-18T02:25:00.158Z,1.77
2022-09-18T02:27:33.075Z,1.60
2022-09-18T02:30:06.199Z,1.40
2022-09-18T02:32:38.062Z,1.40
2022-09-18T02:35:09.716Z,1.40
2022-09-18T02:37:55.727Z,1.70
2022-09-18T02:40:39.462Z,1.60
2022-09-18T02:43:28.099Z,1.70
2022-09-18T02:46:08.839Z,2.37
2022-09-18T02:48:53.757Z,1.67
2022-09-18T02:51:32.796Z,1.80
2022-09-18T02:54:08.527Z,1.83
2022-09-18T02:56:43.638Z,1.60
2022-09-18T02:59:19.455Z,1.50
2022-09-18T03:01:49.577Z,1.40
2022-09-18T03:04:24.162Z,1.77
2022-09-18T03:06:52.407Z,1.63
2022-09-18T03:09:22.060Z,1.77
2022-09-18T03:11:50.870Z,1.60
2022-09-18T03:14:18.877Z,2.17
2022-09-18T03:16:48.265Z,1.33
2022-09-18T03:19:17.388Z,1.63
2022-09-18T03:21:45.722Z,1.63
2022-09-18T03:24:13.955Z,1.60
2022-09-18T03:26:41.945Z,1.70
2022-09-18T03:29:10.405Z,1.50
2022-09-18T03:31:38.767Z,1.47
2022-09-18T03:34:08.513Z,1.27
2022-09-18T03:36:36.922Z,2.27
2022-09-18T03:39:05.717Z,1.80
2022-09-18T03:41:33.755Z,1.30
2022-09-18T03:44:01.769Z,1.40
2022-09-18T03:46:29.816Z,1.70
2022-09-18T03:48:58.015Z,1.60
2022-09-18T03:51:27.371Z,1.70
2022-09-18T03:53:55.312Z,1.50
2022-09-18T03:56:23.381Z,2.20
2022-09-18T03:58:51.890Z,1.67
2022-09-18T04:01:19.962Z,1.63
2022-09-18T04:03:47.990Z,1.80
2022-09-18T04:06:16.936Z,1.83
2022-09-18T04:08:46.252Z,1.90
2022-09-18T04:11:14.248Z,1.70
2022-09-18T04:13:42.239Z,1.70
2022-09-18T04:16:10.334Z,1.80
2022-09-18T04:18:38.300Z,2.17
2022-09-18T04:21:06.725Z,1.77
2022-09-18T04:23:34.722Z,1.93
2022-09-18T04:26:09.287Z,1.77
2022-09-18T04:28:38.014Z,1.70
2022-09-18T04:31:06.771Z,2.03
2022-09-18T04:33:34.921Z,1.70
2022-09-18T04:36:03.286Z,1.90
2022-09-18T04:38:31.287Z,2.10
2022-09-18T04:41:00.604Z,1.80
2022-09-18T04:43:30.209Z,1.70
2022-09-18T04:45:58.161Z,1.97
2022-09-18T04:48:26.290Z,1.80
2022-09-18T04:50:54.363Z,2.10
2022-09-18T04:53:22.377Z,1.90
2022-09-18T04:55:50.436Z,1.83
2022-09-18T04:58:20.589Z,2.20
2022-09-18T05:00:52.001Z,2.17
2022-09-18T05:03:22.464Z,1.73
2022-09-18T05:05:51.101Z,1.60
2022-09-18T05:08:19.367Z,2.00
2022-09-18T05:10:47.388Z,1.73
2022-09-18T05:13:15.814Z,2.23
2022-09-18T05:15:43.877Z,1.67
2022-09-18T05:18:14.020Z,1.83
2022-09-18T05:20:42.171Z,1.90
2022-09-18T05:23:10.202Z,2.10
2022-09-18T05:25:38.183Z,1.90
2022-09-18T05:28:06.806Z,2.30
2022-09-18T05:30:34.820Z,2.33
2022-09-18T05:33:05.329Z,2.10
2022-09-18T05:35:37.392Z,1.90
2022-09-18T05:38:05.618Z,2.17
2022-09-18T05:40:36.283Z,1.70
2022-09-18T05:43:04.868Z,1.50
2022-09-18T05:45:33.064Z,1.40
2022-09-18T05:48:03.445Z,1.53
2022-09-18T05:50:34.655Z,1.60
2022-09-18T05:53:05.734Z,1.50
2022-09-18T05:55:34.796Z,1.67
2022-09-18T05:58:05.085Z,2.27
2022-09-18T06:00:36.507Z,2.50
2022-09-18T06:03:07.311Z,1.37
2022-09-18T06:05:38.581Z,1.97
2022-09-18T06:08:08.864Z,1.53
2022-09-18T06:10:39.321Z,1.80
2022-09-18T06:13:10.577Z,1.70
2022-09-18T06:15:39.025Z,1.70
2022-09-18T06:18:08.723Z,1.80
2022-09-18T06:20:38.243Z,1.77
2022-09-18T06:23:06.311Z,1.80
2022-09-18T06:25:34.344Z,1.60
2022-09-18T06:28:02.818Z,1.47
2022-09-18T06:30:33.132Z,1.30
2022-09-18T06:33:03.265Z,1.50
2022-09-18T06:35:33.046Z,1.10
2022-09-18T06:38:03.977Z,1.50
2022-09-18T06:40:33.242Z,1.13
2022-09-18T06:43:03.702Z,3.37
2022-09-18T06:45:32.961Z,2.97
2022-09-18T06:48:04.756Z,1.53
2022-09-18T06:50:32.962Z,1.37
2022-09-18T06:53:10.075Z,1.30
2022-09-18T06:55:40.350Z,1.10
2022-09-18T06:58:08.672Z,1.70
2022-09-18T07:00:36.688Z,1.83
2022-09-18T07:03:05.064Z,1.37
2022-09-18T07:05:33.985Z,1.90
2022-09-18T07:08:03.806Z,1.40
2022-09-18T07:10:31.843Z,1.23
2022-09-18T07:13:02.182Z,1.53
2022-09-18T07:15:30.679Z,1.20
2022-09-18T07:18:00.180Z,1.50
2022-09-18T07:20:29.437Z,1.30
2022-09-18T07:23:00.070Z,1.53
2022-09-18T07:25:32.306Z,1.40
2022-09-18T07:28:04.932Z,1.50
2022-09-18T07:30:33.166Z,1.20
2022-09-18T07:33:03.353Z,1.40
2022-09-18T07:35:31.545Z,1.67
2022-09-18T07:38:00.059Z,1.37
2022-09-18T07:40:30.097Z,1.60
2022-09-18T07:43:01.116Z,1.40
2022-09-18T07:45:29.545Z,1.43
2022-09-18T07:47:58.015Z,1.50
2022-09-18T07:50:25.973Z,1.30
2022-09-18T07:52:57.261Z,1.40
2022-09-18T07:55:28.343Z,1.73
2022-09-18T07:58:00.707Z,1.53
2022-09-18T08:00:31.348Z,1.80
2022-09-18T08:03:04.231Z,1.50
2022-09-18T08:05:32.815Z,1.48
2022-09-18T08:08:05.094Z,1.45
2022-09-18T08:10:34.306Z,1.63
2022-09-18T08:13:04.124Z,1.30
2022-09-18T08:15:33.477Z,1.40
2022-09-18T08:18:01.672Z,1.33
2022-09-18T08:20:29.772Z,1.52
2022-09-18T08:22:58.488Z,1.27
2022-09-18T08:25:28.368Z,1.10
2022-09-18T08:27:59.863Z,1.30
2022-09-18T08:30:29.778Z,1.33
2022-09-18T08:33:01.234Z,1.67
2022-09-18T08:35:30.338Z,1.00
2022-09-18T08:37:59.323Z,1.20
2022-09-18T08:40:53.853Z,1.10
2022-09-18T08:43:59.790Z,1.35
2022-09-18T08:46:37.437Z,1.45
2022-09-18T08:49:24.044Z,1.27
2022-09-18T08:52:03.627Z,1.40
2022-09-18T08:54:46.655Z,1.10
2022-09-18T08:57:22.360Z,1.10
2022-09-18T08:59:55.913Z,0.93
2022-09-18T09:02:40.026Z,1.20
2022-09-18T09:05:12.535Z,1.25
2022-09-18T09:08:38.065Z,1.60
2022-09-18T09:11:18.833Z,1.42
2022-09-18T09:14:16.258Z,1.20
2022-09-18T09:16:48.432Z,1.05
2022-09-18T09:19:31.278Z,1.38
2022-09-18T09:22:13.870Z,1.10
2022-09-18T09:24:57.246Z,1.00
2022-09-18T09:27:31.593Z,1.45
2022-09-18T09:30:06.950Z,1.00
2022-09-18T09:32:44.036Z,1.10
2022-09-18T09:35:29.593Z,1.20
2022-09-18T09:38:01.428Z,0.90
2022-09-18T09:40:40.956Z,0.80
2022-09-18T09:43:28.892Z,1.25
2022-09-18T09:46:03.588Z,0.95
2022-09-18T09:48:42.606Z,0.93
2022-09-18T09:51:23.112Z,1.00
2022-09-18T09:53:53.130Z,1.02
2022-09-18T09:56:33.634Z,1.10
2022-09-18T09:59:11.422Z,1.10
2022-09-18T10:01:47.334Z,0.90
2022-09-18T10:04:30.129Z,0.90
2022-09-18T10:07:15.032Z,0.70
2022-09-18T10:09:52.370Z,0.88
2022-09-18T10:12:31.001Z,0.95
2022-09-18T10:15:14.371Z,0.80
2022-09-18T10:17:43.920Z,0.90
2022-09-18T10:20:18.349Z,1.15
2022-09-18T10:22:48.931Z,1.10
2022-09-18T10:25:31.789Z,0.90
2022-09-18T10:27:59.795Z,1.05
2022-09-18T10:30:27.787Z,1.08
2022-09-18T10:32:55.797Z,0.90
2022-09-18T10:35:45.876Z,1.13
2022-09-18T10:38:33.434Z,1.08
2022-09-18T10:41:27.040Z,1.27
2022-09-18T10:44:00.714Z,1.15
2022-09-18T10:46:32.798Z,1.27
2022-09-18T10:49:24.191Z,1.10
2022-09-18T10:52:29.780Z,1.30
2022-09-18T10:55:12.816Z,0.90
2022-09-18T10:57:44.457Z,0.70
2022-09-18T11:00:50.832Z,1.08
2022-09-18T11:03:49.692Z,0.70
2022-09-18T11:06:23.817Z,1.20
2022-09-18T11:08:56.223Z,1.23
2022-09-18T11:11:31.696Z,1.23
2022-09-18T11:14:03.132Z,0.90
2022-09-18T11:16:34.236Z,0.85
2022-09-18T11:19:13.875Z,0.80
2022-09-18T11:21:46.576Z,1.05
2022-09-18T11:24:24.004Z,0.90
2022-09-18T11:26:55.318Z,1.10
2022-09-18T11:29:30.681Z,0.90
2022-09-18T11:32:06.486Z,1.25
2022-09-18T11:34:38.843Z,1.27
2022-09-18T11:37:12.445Z,1.40
2022-09-18T11:39:45.471Z,1.40
2022-09-18T11:42:17.438Z,1.02
2022-09-18T11:44:46.287Z,1.23
2022-09-18T11:47:42.142Z,1.00
2022-09-18T11:50:17.645Z,1.20
2022-09-18T11:52:52.098Z,1.70
2022-09-18T11:55:29.940Z,1.52
2022-09-18T11:58:04.746Z,1.30
2022-09-18T12:00:41.116Z,1.55
2022-09-18T12:03:22.759Z,1.60
2022-09-18T12:05:56.404Z,1.20
2022-09-18T12:08:38.212Z,1.30
2022-09-18T12:11:18.534Z,1.20
2022-09-18T12:14:03.135Z,1.33
2022-09-18T12:16:46.097Z,0.93
2022-09-18T12:19:22.673Z,1.52
2022-09-18T12:21:59.884Z,1.00
2022-09-18T12:24:28.747Z,1.05
2022-09-18T12:27:18.572Z,1.13
2022-09-18T12:30:04.439Z,1.00
2022-09-18T12:33:00.936Z,1.10
2022-09-18T12:35:51.446Z,1.10
2022-09-18T12:38:41.879Z,0.90
2022-09-18T12:41:28.740Z,0.60
2022-09-18T12:44:30.739Z,0.70
2022-09-18T12:47:40.996Z,0.60
2022-09-18T12:50:42.554Z,0.70
2022-09-18T12:53:28.173Z,0.80
2022-09-18T12:56:17.652Z,0.80
2022-09-18T12:59:09.704Z,0.97
2022-09-18T13:01:45.094Z,0.83
2022-09-18T13:04:28.414Z,0.53
2022-09-18T13:07:03.671Z,0.77
2022-09-18T13:09:39.607Z,0.70
2022-09-18T13:12:16.451Z,0.93
2022-09-18T13:14:51.780Z,0.67
2022-09-18T13:17:26.969Z,0.80
2022-09-18T13:20:06.750Z,0.90
2022-09-18T13:22:39.112Z,0.73
2022-09-18T13:25:22.478Z,1.10
2022-09-18T13:27:53.773Z,1.20
2022-09-18T13:30:28.897Z,1.40
2022-09-18T13:32:58.783Z,1.10
2022-09-18T13:35:31.873Z,0.90
2022-09-18T13:38:15.976Z,1.10
2022-09-18T13:40:47.722Z,1.30
2022-09-18T13:43:40.093Z,1.37
2022-09-18T13:46:10.992Z,1.30
2022-09-18T13:48:46.633Z,1.10
2022-09-18T13:51:30.677Z,1.10
2022-09-18T13:54:22.651Z,1.07
2022-09-18T13:57:29.496Z,1.30
2022-09-18T14:00:01.572Z,1.17
2022-09-18T14:02:36.291Z,1.30
2022-09-18T14:05:33.546Z,1.47
2022-09-18T14:08:10.396Z,1.27
2022-09-18T14:11:16.729Z,1.30
2022-09-18T14:13:54.139Z,1.30
2022-09-18T14:16:43.516Z,1.23
2022-09-18T14:19:35.627Z,1.20
2022-09-18T14:22:04.539Z,1.20
2022-09-18T14:25:00.625Z,1.80
2022-09-18T14:27:53.553Z,0.90
2022-09-18T14:30:25.145Z,1.10
2022-09-18T14:33:18.938Z,0.97
2022-09-18T14:35:56.236Z,0.90
2022-09-18T14:38:34.131Z,1.10
2022-09-18T14:41:19.106Z,1.20
2022-09-18T14:43:53.859Z,1.10
2022-09-18T14:46:25.274Z,1.20
2022-09-18T14:48:54.696Z,0.90
2022-09-18T14:51:25.418Z,0.77
2022-09-18T14:53:55.964Z,0.87
2022-09-18T14:56:30.518Z,0.80
2022-09-18T14:59:04.177Z,0.87
2022-09-18T15:01:35.713Z,0.63
2022-09-18T15:04:13.500Z,0.73
2022-09-18T15:06:47.383Z,0.80
2022-09-18T15:09:24.635Z,0.87
2022-09-18T15:12:03.147Z,0.70
2022-09-18T15:14:42.812Z,1.00
2022-09-18T15:17:20.866Z,0.80
2022-09-18T15:20:01.196Z,0.70
2022-09-18T15:22:31.113Z,1.17
2022-09-18T15:25:01.795Z,0.80
2022-09-18T15:27:32.659Z,0.90
2022-09-18T15:30:04.587Z,0.63
2022-09-18T15:32:43.352Z,0.70
2022-09-18T15:35:21.827Z,0.70
2022-09-18T15:38:00.869Z,0.70
2022-09-18T15:40:35.202Z,0.70
2022-09-18T15:43:07.173Z,0.70
2022-09-18T15:45:38.458Z,0.60
2022-09-18T15:48:36.488Z,0.60
2022-09-18T15:51:15.888Z,0.60
2022-09-18T15:54:24.842Z,0.60
2022-09-18T15:56:56.570Z,0.80
2022-09-18T15:59:33.268Z,0.87
2022-09-18T16:02:07.435Z,0.87
2022-09-18T16:04:37.354Z,0.80
2022-09-18T16:07:18.583Z,0.97
2022-09-18T16:09:49.066Z,0.70
2022-09-18T16:12:39.845Z,0.80
2022-09-18T16:15:25.495Z,0.90
2022-09-18T16:18:05.609Z,0.70
2022-09-18T16:20:38.926Z,0.87
2022-09-18T16:23:25.749Z,0.90
2022-09-18T16:26:10.633Z,0.90
2022-09-18T16:28:44.045Z,0.70
2022-09-18T16:31:16.689Z,0.77
2022-09-18T16:33:57.966Z,0.70
2022-09-18T16:36:31.349Z,0.93
2022-09-18T16:39:02.087Z,0.90
2022-09-18T16:41:31.106Z,0.97
2022-09-18T16:44:00.031Z,1.10
2022-09-18T16:46:38.381Z,1.40
2022-09-18T16:49:06.595Z,1.27
2022-09-18T16:51:34.562Z,0.73
2022-09-18T16:54:02.780Z,2.77
2022-09-18T16:56:36.184Z,1.00
2022-09-18T16:59:06.718Z,0.90
2022-09-18T17:02:00.342Z,1.00
2022-09-18T17:04:28.850Z,1.20
2022-09-18T17:06:56.835Z,1.47
2022-09-18T17:09:25.319Z,1.63
2022-09-18T17:11:54.280Z,1.40
2022-09-18T17:14:23.031Z,1.00
2022-09-18T17:16:52.800Z,1.10
2022-09-18T17:19:21.391Z,0.90
2022-09-18T17:21:50.183Z,0.90
2022-09-18T17:24:23.940Z,0.90
2022-09-18T17:26:52.631Z,0.90
2022-09-18T17:29:21.011Z,1.07
2022-09-18T17:31:49.277Z,0.70
2022-09-18T17:34:18.956Z,0.90
2022-09-18T17:36:47.231Z,1.10
2022-09-18T17:39:16.977Z,0.80
2022-09-18T17:41:45.710Z,0.90
2022-09-18T17:44:13.698Z,0.90
2022-09-18T17:46:41.774Z,0.90
2022-09-18T17:49:10.014Z,1.00
2022-09-18T17:51:39.351Z,1.73
2022-09-18T17:54:08.171Z,1.00
2022-09-18T17:56:36.135Z,0.90
2022-09-18T17:59:06.914Z,0.90
2022-09-18T18:01:38.138Z,0.80
2022-09-18T18:04:07.274Z,0.80
2022-09-18T18:06:36.853Z,0.80
2022-09-18T18:09:09.732Z,0.90
2022-09-18T18:11:38.565Z,1.10
2022-09-18T18:14:07.012Z,0.80
2022-09-18T18:16:37.982Z,0.97
2022-09-18T18:19:12.055Z,0.90
2022-09-18T18:21:42.539Z,0.90
2022-09-18T18:24:16.319Z,0.70
2022-09-18T18:26:45.838Z,0.90
2022-09-18T18:29:16.732Z,0.70
2022-09-18T18:31:45.984Z,0.70
2022-09-18T18:34:15.166Z,0.80
2022-09-18T18:36:43.637Z,0.70
2022-09-18T18:39:14.616Z,0.80
2022-09-18T18:41:44.826Z,1.20
2022-09-18T18:44:13.260Z,0.70
2022-09-18T18:46:41.895Z,0.80
2022-09-18T18:49:13.070Z,1.10
2022-09-18T18:51:45.094Z,1.10
2022-09-18T18:54:16.174Z,1.40
2022-09-18T18:56:44.584Z,1.30
2022-09-18T18:59:15.099Z,1.00
2022-09-18T19:01:44.242Z,1.10
2022-09-18T19:04:15.180Z,1.27
2022-09-18T19:06:44.943Z,0.83
2022-09-18T19:09:20.658Z,0.90
2022-09-18T19:11:50.586Z,1.10
2022-09-18T19:14:22.015Z,0.70
2022-09-18T19:16:51.754Z,0.80
2022-09-18T19:19:23.472Z,0.90
2022-09-18T19:21:52.766Z,0.97
2022-09-18T19:24:22.662Z,1.30
2022-09-18T19:26:50.741Z,1.20
2022-09-18T19:29:22.339Z,1.17
2022-09-18T19:31:51.317Z,1.37
2022-09-18T19:34:22.130Z,1.30
2022-09-18T19:36:51.771Z,1.63
2022-09-18T19:39:24.480Z,1.60
2022-09-18T19:41:59.565Z,1.30
2022-09-18T19:44:34.556Z,1.20
2022-09-18T19:47:07.309Z,1.00
2022-09-18T19:49:39.653Z,1.23
2022-09-18T19:52:18.366Z,0.90
2022-09-18T19:54:48.956Z,1.13
2022-09-18T19:57:17.569Z,1.00
2022-09-18T19:59:46.925Z,0.80
2022-09-18T20:02:17.831Z,0.80
2022-09-18T20:04:46.007Z,0.87
2022-09-18T20:07:15.002Z,1.00
2022-09-18T20:09:43.051Z,0.80
2022-09-18T20:12:12.710Z,0.70
2022-09-18T20:14:40.867Z,0.77
2022-09-18T20:17:09.880Z,1.10
2022-09-18T20:19:38.170Z,0.80
2022-09-18T20:22:06.658Z,0.70
2022-09-18T20:24:35.222Z,0.80
2022-09-18T20:27:03.353Z,0.80
2022-09-18T20:29:33.925Z,0.87
2022-09-18T20:32:02.749Z,0.90
2022-09-18T20:34:30.755Z,0.93
2022-09-18T20:36:59.071Z,0.80
2022-09-18T20:39:27.033Z,0.90
2022-09-18T20:41:57.254Z,0.70
2022-09-18T20:44:25.306Z,0.60
2022-09-18T20:46:56.571Z,0.87
2022-09-18T20:49:25.078Z,0.93
2022-09-18T20:51:53.380Z,0.80
2022-09-18T20:54:22.780Z,0.90
2022-09-18T20:56:50.800Z,0.80
2022-09-18T20:59:20.940Z,1.00
2022-09-18T21:01:49.677Z,0.90
2022-09-18T21:04:22.031Z,1.17
2022-09-18T21:06:55.937Z,0.97
2022-09-18T21:09:26.227Z,1.00
2022-09-18T21:11:54.961Z,0.90
2022-09-18T21:14:24.549Z,1.00
2022-09-18T21:16:52.614Z,0.93
2022-09-18T21:19:26.484Z,1.20
2022-09-18T21:21:54.690Z,1.20
2022-09-18T21:24:22.811Z,1.20
2022-09-18T21:26:51.439Z,1.23
2022-09-18T21:29:22.637Z,1.40
2022-09-18T21:31:54.374Z,1.30
2022-09-18T21:34:26.909Z,1.50
2022-09-18T21:36:58.547Z,1.63
2022-09-18T21:39:29.134Z,1.67
2022-09-18T21:41:58.290Z,1.90
2022-09-18T21:44:30.085Z,1.90
2022-09-18T21:47:01.872Z,2.20
2022-09-18T21:49:31.953Z,2.30
2022-09-18T21:52:03.092Z,2.40
2022-09-18T21:54:32.033Z,2.73
2022-09-18T21:57:01.143Z,2.90
2022-09-18T21:59:35.669Z,2.60
2022-09-18T22:02:04.826Z,2.70
2022-09-18T22:04:34.201Z,2.43
2022-09-18T22:07:02.855Z,2.43
2022-09-18T22:09:34.368Z,2.50
2022-09-18T22:12:03.726Z,2.47
2022-09-18T22:14:34.710Z,2.40
2022-09-18T22:17:05.331Z,2.17
2022-09-18T22:19:39.291Z,1.90
2022-09-18T22:22:08.864Z,1.97
2022-09-18T22:24:37.012Z,1.70
2022-09-18T22:27:08.582Z,1.70
2022-09-18T22:29:39.543Z,2.00
2022-09-18T22:32:09.247Z,1.60
2022-09-18T22:34:38.652Z,1.77
2022-09-18T22:37:07.775Z,1.63
2022-09-18T22:39:35.738Z,1.50
2022-09-18T22:42:03.730Z,1.90
2022-09-18T22:44:31.684Z,2.20
2022-09-18T22:46:59.717Z,2.20
2022-09-18T22:49:27.763Z,2.30
2022-09-18T22:51:57.621Z,2.10
2022-09-18T22:54:27.586Z,2.40
2022-09-18T22:56:56.472Z,2.30
2022-09-18T22:59:27.378Z,2.40
2022-09-18T23:01:59.230Z,2.63
2022-09-18T23:04:30.488Z,2.97
2022-09-18T23:07:00.394Z,2.90
2022-09-18T23:09:29.516Z,2.80
2022-09-18T23:11:58.728Z,2.67
2022-09-18T23:14:29.387Z,2.47
2022-09-18T23:16:59.371Z,2.60
2022-09-18T23:19:30.199Z,1.90
2022-09-18T23:21:59.601Z,1.80
2022-09-18T23:24:28.261Z,1.70
2022-09-18T23:26:58.796Z,1.67
2022-09-18T23:29:31.710Z,1.47
2022-09-18T23:32:00.137Z,1.20
2022-09-18T23:34:31.757Z,1.53
2022-09-18T23:37:02.295Z,1.60
2022-09-18T23:39:32.693Z,1.50
2022-09-18T23:42:02.996Z,1.60
2022-09-18T23:44:31.940Z,1.40
2022-09-18T23:47:01.003Z,1.40
2022-09-18T23:49:29.741Z,1.50
2022-09-18T23:51:59.369Z,1.40
2022-09-18T23:54:31.186Z,1.50
2022-09-18T23:56:59.475Z,1.50
2022-09-18T23:59:28.688Z,1.60
